sensor_id;sensor_type;location;lat;lon;timestamp;temperature;humidity
51878;SHT31;37911;51.526;11.536;2024-02-15T00:01:03;8.96;93.41
51878;SHT31;37911;51.526;11.536;2024-02-15T00:04:07;9.12;93.04
51878;SHT31;37911;51.526;11.536;2024-02-15T00:07:11;9.10;93.16
51878;SHT31;37911;51.526;11.536;2024-02-15T00:10:17;9.07;93.19
51878;SHT31;37911;51.526;11.536;2024-02-15T00:13:23;9.11;93.33
51878;SHT31;37911;51.526;11.536;2024-02-15T00:16:26;9.08;93.45
51878;SHT31;37911;51.526;11.536;2024-02-15T00:19:30;9.22;93.23
51878;SHT31;37911;51.526;11.536;2024-02-15T00:22:33;9.21;93.28
51878;SHT31;37911;51.526;11.536;2024-02-15T00:25:39;9.19;93.25
51878;SHT31;37911;51.526;11.536;2024-02-15T00:28:45;9.18;93.37
51878;SHT31;37911;51.526;11.536;2024-02-15T00:31:49;9.17;93.40
51878;SHT31;37911;51.526;11.536;2024-02-15T00:34:53;9.17;93.44
51878;SHT31;37911;51.526;11.536;2024-02-15T00:37:57;9.15;93.50
51878;SHT31;37911;51.526;11.536;2024-02-15T00:41:03;9.15;93.53
51878;SHT31;37911;51.526;11.536;2024-02-15T00:44:08;9.18;93.47
51878;SHT31;37911;51.526;11.536;2024-02-15T00:47:11;9.31;93.11
51878;SHT31;37911;51.526;11.536;2024-02-15T00:50:15;9.24;93.40
51878;SHT31;37911;51.526;11.536;2024-02-15T00:53:19;9.19;93.52
51878;SHT31;37911;51.526;11.536;2024-02-15T00:56:25;9.21;93.50
51878;SHT31;37911;51.526;11.536;2024-02-15T00:59:28;9.22;93.52
51878;SHT31;37911;51.526;11.536;2024-02-15T01:02:31;9.29;93.39
51878;SHT31;37911;51.526;11.536;2024-02-15T01:05:36;9.21;93.49
51878;SHT31;37911;51.526;11.536;2024-02-15T01:08:39;9.18;93.62
51878;SHT31;37911;51.526;11.536;2024-02-15T01:11:45;9.17;93.56
51878;SHT31;37911;51.526;11.536;2024-02-15T01:14:48;9.18;93.69
51878;SHT31;37911;51.526;11.536;2024-02-15T01:17:51;9.27;93.56
51878;SHT31;37911;51.526;11.536;2024-02-15T01:20:55;9.21;93.64
51878;SHT31;37911;51.526;11.536;2024-02-15T01:23:58;9.24;93.68
51878;SHT31;37911;51.526;11.536;2024-02-15T01:27:05;9.28;93.60
51878;SHT31;37911;51.526;11.536;2024-02-15T01:30:10;9.32;93.38
51878;SHT31;37911;51.526;11.536;2024-02-15T01:33:13;9.31;93.43
51878;SHT31;37911;51.526;11.536;2024-02-15T01:36:18;9.27;93.50
51878;SHT31;37911;51.526;11.536;2024-02-15T01:39:21;9.25;93.58
51878;SHT31;37911;51.526;11.536;2024-02-15T01:42:27;9.22;93.68
51878;SHT31;37911;51.526;11.536;2024-02-15T01:45:30;9.18;93.69
51878;SHT31;37911;51.526;11.536;2024-02-15T01:48:34;9.18;93.83
51878;SHT31;37911;51.526;11.536;2024-02-15T01:51:38;9.27;93.73
51878;SHT31;37911;51.526;11.536;2024-02-15T01:54:44;9.31;93.80
51878;SHT31;37911;51.526;11.536;2024-02-15T01:57:50;9.31;93.74
51878;SHT31;37911;51.526;11.536;2024-02-15T02:00:55;9.28;93.84
51878;SHT31;37911;51.526;11.536;2024-02-15T02:04:00;9.28;93.78
51878;SHT31;37911;51.526;11.536;2024-02-15T02:07:04;9.32;93.75
51878;SHT31;37911;51.526;11.536;2024-02-15T02:10:08;9.32;93.80
51878;SHT31;37911;51.526;11.536;2024-02-15T02:13:14;9.41;93.67
51878;SHT31;37911;51.526;11.536;2024-02-15T02:16:24;9.36;93.73
51878;SHT31;37911;51.526;11.536;2024-02-15T02:19:29;9.36;93.66
51878;SHT31;37911;51.526;11.536;2024-02-15T02:22:33;9.36;93.73
51878;SHT31;37911;51.526;11.536;2024-02-15T02:25:40;9.35;93.70
51878;SHT31;37911;51.526;11.536;2024-02-15T02:28:43;9.32;93.71
51878;SHT31;37911;51.526;11.536;2024-02-15T02:31:47;9.32;93.66
51878;SHT31;37911;51.526;11.536;2024-02-15T02:34:50;9.32;93.82
51878;SHT31;37911;51.526;11.536;2024-02-15T02:37:55;9.32;93.67
51878;SHT31;37911;51.526;11.536;2024-02-15T02:41:01;9.28;93.77
51878;SHT31;37911;51.526;11.536;2024-02-15T02:44:04;9.28;93.83
51878;SHT31;37911;51.526;11.536;2024-02-15T02:47:07;9.27;93.81
51878;SHT31;37911;51.526;11.536;2024-02-15T02:50:11;9.25;93.91
51878;SHT31;37911;51.526;11.536;2024-02-15T02:53:14;9.27;93.87
51878;SHT31;37911;51.526;11.536;2024-02-15T02:56:20;9.28;93.99
51878;SHT31;37911;51.526;11.536;2024-02-15T02:59:24;9.29;93.80
51878;SHT31;37911;51.526;11.536;2024-02-15T03:02:28;9.24;93.99
51878;SHT31;37911;51.526;11.536;2024-02-15T03:05:31;9.22;93.99
51878;SHT31;37911;51.526;11.536;2024-02-15T03:08:35;9.22;94.10
51878;SHT31;37911;51.526;11.536;2024-02-15T03:11:41;9.21;94.19
51878;SHT31;37911;51.526;11.536;2024-02-15T03:14:44;9.17;94.17
51878;SHT31;37911;51.526;11.536;2024-02-15T03:17:48;9.22;94.17
51878;SHT31;37911;51.526;11.536;2024-02-15T03:20:52;9.22;94.18
51878;SHT31;37911;51.526;11.536;2024-02-15T03:23:55;9.34;93.93
51878;SHT31;37911;51.526;11.536;2024-02-15T03:27:01;9.28;94.09
51878;SHT31;37911;51.526;11.536;2024-02-15T03:30:06;9.24;94.25
51878;SHT31;37911;51.526;11.536;2024-02-15T03:33:11;9.25;94.31
51878;SHT31;37911;51.526;11.536;2024-02-15T03:36:16;9.29;94.28
51878;SHT31;37911;51.526;11.536;2024-02-15T03:39:20;9.38;94.13
51878;SHT31;37911;51.526;11.536;2024-02-15T03:42:26;9.43;94.03
51878;SHT31;37911;51.526;11.536;2024-02-15T03:45:30;9.43;94.01
51878;SHT31;37911;51.526;11.536;2024-02-15T03:48:34;9.48;94.00
51878;SHT31;37911;51.526;11.536;2024-02-15T03:51:38;9.46;93.95
51878;SHT31;37911;51.526;11.536;2024-02-15T03:54:42;9.45;93.95
51878;SHT31;37911;51.526;11.536;2024-02-15T03:57:48;9.45;93.97
51878;SHT31;37911;51.526;11.536;2024-02-15T04:00:52;9.43;93.98
51878;SHT31;37911;51.526;11.536;2024-02-15T04:03:57;9.39;94.01
51878;SHT31;37911;51.526;11.536;2024-02-15T04:07:02;9.36;94.05
51878;SHT31;37911;51.526;11.536;2024-02-15T04:10:07;9.34;94.12
51878;SHT31;37911;51.526;11.536;2024-02-15T04:13:13;9.42;93.92
51878;SHT31;37911;51.526;11.536;2024-02-15T04:16:17;9.38;94.02
51878;SHT31;37911;51.526;11.536;2024-02-15T04:19:20;9.39;93.99
51878;SHT31;37911;51.526;11.536;2024-02-15T04:22:23;9.46;93.97
51878;SHT31;37911;51.526;11.536;2024-02-15T04:25:26;9.41;94.02
51878;SHT31;37911;51.526;11.536;2024-02-15T04:28:34;9.41;94.06
51878;SHT31;37911;51.526;11.536;2024-02-15T04:31:37;9.38;94.15
51878;SHT31;37911;51.526;11.536;2024-02-15T04:34:41;9.38;94.22
51878;SHT31;37911;51.526;11.536;2024-02-15T04:37:47;9.42;94.07
51878;SHT31;37911;51.526;11.536;2024-02-15T04:40:52;9.42;94.21
51878;SHT31;37911;51.526;11.536;2024-02-15T04:43:57;9.46;94.08
51878;SHT31;37911;51.526;11.536;2024-02-15T04:47:01;9.52;94.02
51878;SHT31;37911;51.526;11.536;2024-02-15T04:50:06;9.48;94.11
51878;SHT31;37911;51.526;11.536;2024-02-15T04:53:10;9.48;94.09
51878;SHT31;37911;51.526;11.536;2024-02-15T04:56:13;9.48;94.06
51878;SHT31;37911;51.526;11.536;2024-02-15T04:59:20;9.42;94.17
51878;SHT31;37911;51.526;11.536;2024-02-15T05:02:26;9.46;94.21
51878;SHT31;37911;51.526;11.536;2024-02-15T05:05:30;9.48;94.10
51878;SHT31;37911;51.526;11.536;2024-02-15T05:08:34;9.46;94.21
51878;SHT31;37911;51.526;11.536;2024-02-15T05:11:39;9.48;94.15
51878;SHT31;37911;51.526;11.536;2024-02-15T05:14:49;9.45;94.23
51878;SHT31;37911;51.526;11.536;2024-02-15T05:17:53;9.46;94.22
51878;SHT31;37911;51.526;11.536;2024-02-15T05:20:57;9.49;94.19
51878;SHT31;37911;51.526;11.536;2024-02-15T05:24:01;9.52;94.10
51878;SHT31;37911;51.526;11.536;2024-02-15T05:27:05;9.46;94.23
51878;SHT31;37911;51.526;11.536;2024-02-15T05:30:12;9.42;94.21
51878;SHT31;37911;51.526;11.536;2024-02-15T05:33:16;9.46;94.20
51878;SHT31;37911;51.526;11.536;2024-02-15T05:36:20;9.51;94.14
51878;SHT31;37911;51.526;11.536;2024-02-15T05:39:26;9.49;94.05
51878;SHT31;37911;51.526;11.536;2024-02-15T05:42:30;9.49;93.94
51878;SHT31;37911;51.526;11.536;2024-02-15T05:45:36;9.46;94.03
51878;SHT31;37911;51.526;11.536;2024-02-15T05:48:40;9.42;94.12
51878;SHT31;37911;51.526;11.536;2024-02-15T05:51:43;9.41;94.17
51878;SHT31;37911;51.526;11.536;2024-02-15T05:54:48;9.41;94.13
51878;SHT31;37911;51.526;11.536;2024-02-15T05:57:52;9.42;94.17
51878;SHT31;37911;51.526;11.536;2024-02-15T06:00:59;9.51;93.99
51878;SHT31;37911;51.526;11.536;2024-02-15T06:04:05;9.46;94.20
51878;SHT31;37911;51.526;11.536;2024-02-15T06:07:13;9.41;94.13
51878;SHT31;37911;51.526;11.536;2024-02-15T06:10:17;9.41;94.21
51878;SHT31;37911;51.526;11.536;2024-02-15T06:13:21;9.41;94.28
51878;SHT31;37911;51.526;11.536;2024-02-15T06:16:27;9.39;94.28
51878;SHT31;37911;51.526;11.536;2024-02-15T06:19:30;9.41;94.30
51878;SHT31;37911;51.526;11.536;2024-02-15T06:22:34;9.48;94.20
51878;SHT31;37911;51.526;11.536;2024-02-15T06:25:37;9.42;94.26
51878;SHT31;37911;51.526;11.536;2024-02-15T06:28:40;9.42;94.38
51878;SHT31;37911;51.526;11.536;2024-02-15T06:31:59;9.45;94.38
51878;SHT31;37911;51.526;11.536;2024-02-15T06:35:15;9.55;94.23
51878;SHT31;37911;51.526;11.536;2024-02-15T06:38:31;9.52;94.29
51878;SHT31;37911;51.526;11.536;2024-02-15T06:41:46;9.59;94.25
51878;SHT31;37911;51.526;11.536;2024-02-15T06:44:50;9.60;94.15
51878;SHT31;37911;51.526;11.536;2024-02-15T06:47:56;9.66;94.12
51878;SHT31;37911;51.526;11.536;2024-02-15T06:50:59;9.66;94.19
51878;SHT31;37911;51.526;11.536;2024-02-15T06:54:03;9.83;94.09
51878;SHT31;37911;51.526;11.536;2024-02-15T06:57:07;9.94;93.81
51878;SHT31;37911;51.526;11.536;2024-02-15T07:00:11;10.00;93.72
51878;SHT31;37911;51.526;11.536;2024-02-15T07:03:18;10.04;93.56
51878;SHT31;37911;51.526;11.536;2024-02-15T07:06:22;10.02;93.44
51878;SHT31;37911;51.526;11.536;2024-02-15T07:09:27;10.00;93.39
51878;SHT31;37911;51.526;11.536;2024-02-15T07:12:31;10.00;93.37
51878;SHT31;37911;51.526;11.536;2024-02-15T07:15:34;10.10;93.38
51878;SHT31;37911;51.526;11.536;2024-02-15T07:18:41;10.12;93.31
51878;SHT31;37911;51.526;11.536;2024-02-15T07:21:46;10.09;93.28
51878;SHT31;37911;51.526;11.536;2024-02-15T07:24:49;10.21;93.03
51878;SHT31;37911;51.526;11.536;2024-02-15T07:27:52;10.16;93.04
51878;SHT31;37911;51.526;11.536;2024-02-15T07:30:57;10.18;93.02
51878;SHT31;37911;51.526;11.536;2024-02-15T07:34:05;10.17;92.98
51878;SHT31;37911;51.526;11.536;2024-02-15T07:37:08;10.18;92.91
51878;SHT31;37911;51.526;11.536;2024-02-15T07:40:13;10.23;92.81
51878;SHT31;37911;51.526;11.536;2024-02-15T07:43:16;10.29;92.74
51878;SHT31;37911;51.526;11.536;2024-02-15T07:46:20;10.32;92.79
51878;SHT31;37911;51.526;11.536;2024-02-15T07:49:27;10.38;92.64
51878;SHT31;37911;51.526;11.536;2024-02-15T07:52:30;10.47;92.61
51878;SHT31;37911;51.526;11.536;2024-02-15T07:55:34;10.47;92.48
51878;SHT31;37911;51.526;11.536;2024-02-15T07:58:39;10.54;92.30
51878;SHT31;37911;51.526;11.536;2024-02-15T08:01:46;10.60;92.02
51878;SHT31;37911;51.526;11.536;2024-02-15T08:04:53;10.68;91.69
51878;SHT31;37911;51.526;11.536;2024-02-15T08:07:56;10.64;91.52
51878;SHT31;37911;51.526;11.536;2024-02-15T08:10:59;10.64;91.58
51878;SHT31;37911;51.526;11.536;2024-02-15T08:14:03;10.68;91.58
51878;SHT31;37911;51.526;11.536;2024-02-15T08:17:08;10.74;91.58
51878;SHT31;37911;51.526;11.536;2024-02-15T08:20:16;10.78;91.52
51878;SHT31;37911;51.526;11.536;2024-02-15T08:23:21;10.88;91.37
51878;SHT31;37911;51.526;11.536;2024-02-15T08:26:27;10.92;91.10
51878;SHT31;37911;51.526;11.536;2024-02-15T08:29:31;10.95;90.91
51878;SHT31;37911;51.526;11.536;2024-02-15T08:32:35;11.05;90.69
51878;SHT31;37911;51.526;11.536;2024-02-15T08:35:42;11.11;90.72
51878;SHT31;37911;51.526;11.536;2024-02-15T08:38:45;11.12;90.64
51878;SHT31;37911;51.526;11.536;2024-02-15T08:41:50;11.26;90.37
51878;SHT31;37911;51.526;11.536;2024-02-15T08:44:53;11.28;90.31
51878;SHT31;37911;51.526;11.536;2024-02-15T08:47:57;11.33;90.29
51878;SHT31;37911;51.526;11.536;2024-02-15T08:51:03;11.43;90.08
51878;SHT31;37911;51.526;11.536;2024-02-15T08:54:09;11.53;90.14
51878;SHT31;37911;51.526;11.536;2024-02-15T08:57:12;11.59;89.88
51878;SHT31;37911;51.526;11.536;2024-02-15T09:00:15;11.55;89.95
51878;SHT31;37911;51.526;11.536;2024-02-15T09:03:19;11.52;89.93
51878;SHT31;37911;51.526;11.536;2024-02-15T09:06:25;11.46;89.97
51878;SHT31;37911;51.526;11.536;2024-02-15T09:09:28;11.39;89.97
51878;SHT31;37911;51.526;11.536;2024-02-15T09:12:31;11.49;89.89
51878;SHT31;37911;51.526;11.536;2024-02-15T09:15:35;11.52;89.87
51878;SHT31;37911;51.526;11.536;2024-02-15T09:18:39;11.58;89.42
51878;SHT31;37911;51.526;11.536;2024-02-15T09:21:48;11.69;89.27
51878;SHT31;37911;51.526;11.536;2024-02-15T09:24:51;11.79;89.23
51878;SHT31;37911;51.526;11.536;2024-02-15T09:27:54;11.89;88.96
51878;SHT31;37911;51.526;11.536;2024-02-15T09:30:58;11.94;88.33
51878;SHT31;37911;51.526;11.536;2024-02-15T09:34:02;11.91;88.31
51878;SHT31;37911;51.526;11.536;2024-02-15T09:37:09;11.94;88.02
51878;SHT31;37911;51.526;11.536;2024-02-15T09:40:14;11.86;88.26
51878;SHT31;37911;51.526;11.536;2024-02-15T09:43:18;11.84;88.49
51878;SHT31;37911;51.526;11.536;2024-02-15T09:46:22;11.83;88.34
51878;SHT31;37911;51.526;11.536;2024-02-15T09:49:28;11.84;88.26
51878;SHT31;37911;51.526;11.536;2024-02-15T09:52:39;11.84;88.37
51878;SHT31;37911;51.526;11.536;2024-02-15T09:55:44;11.81;88.61
51878;SHT31;37911;51.526;11.536;2024-02-15T09:58:52;11.86;88.62
51878;SHT31;37911;51.526;11.536;2024-02-15T10:01:58;11.87;88.35
51878;SHT31;37911;51.526;11.536;2024-02-15T10:05:03;11.97;88.29
51878;SHT31;37911;51.526;11.536;2024-02-15T10:08:10;11.97;88.27
51878;SHT31;37911;51.526;11.536;2024-02-15T10:11:13;11.98;88.38
51878;SHT31;37911;51.526;11.536;2024-02-15T10:14:18;11.97;88.14
51878;SHT31;37911;51.526;11.536;2024-02-15T10:17:22;12.01;88.23
51878;SHT31;37911;51.526;11.536;2024-02-15T10:20:27;12.00;88.08
51878;SHT31;37911;51.526;11.536;2024-02-15T10:23:33;11.95;88.14
51878;SHT31;37911;51.526;11.536;2024-02-15T10:26:36;12.01;88.15
51878;SHT31;37911;51.526;11.536;2024-02-15T10:29:39;12.07;88.25
51878;SHT31;37911;51.526;11.536;2024-02-15T10:32:43;12.17;87.54
51878;SHT31;37911;51.526;11.536;2024-02-15T10:35:46;12.23;87.70
51878;SHT31;37911;51.526;11.536;2024-02-15T10:38:52;12.28;87.32
51878;SHT31;37911;51.526;11.536;2024-02-15T10:41:56;12.30;87.14
51878;SHT31;37911;51.526;11.536;2024-02-15T10:45:00;12.40;86.88
51878;SHT31;37911;51.526;11.536;2024-02-15T10:48:07;12.44;86.51
51878;SHT31;37911;51.526;11.536;2024-02-15T10:51:12;12.55;86.52
51878;SHT31;37911;51.526;11.536;2024-02-15T10:54:41;12.68;86.23
51878;SHT31;37911;51.526;11.536;2024-02-15T10:57:46;12.78;86.15
51878;SHT31;37911;51.526;11.536;2024-02-15T11:00:51;12.88;85.92
51878;SHT31;37911;51.526;11.536;2024-02-15T11:03:59;12.96;85.72
51878;SHT31;37911;51.526;11.536;2024-02-15T11:07:04;13.06;84.89
51878;SHT31;37911;51.526;11.536;2024-02-15T11:10:14;13.15;84.65
51878;SHT31;37911;51.526;11.536;2024-02-15T11:13:17;13.13;84.57
51878;SHT31;37911;51.526;11.536;2024-02-15T11:16:39;13.16;84.06
51878;SHT31;37911;51.526;11.536;2024-02-15T11:19:45;13.18;84.04
51878;SHT31;37911;51.526;11.536;2024-02-15T11:22:55;13.27;84.20
51878;SHT31;37911;51.526;11.536;2024-02-15T11:26:02;13.24;84.35
51878;SHT31;37911;51.526;11.536;2024-02-15T11:29:05;13.29;84.01
51878;SHT31;37911;51.526;11.536;2024-02-15T11:32:09;13.36;84.23
51878;SHT31;37911;51.526;11.536;2024-02-15T11:35:13;13.44;83.99
51878;SHT31;37911;51.526;11.536;2024-02-15T11:38:27;13.47;83.21
51878;SHT31;37911;51.526;11.536;2024-02-15T11:41:33;13.46;83.81
51878;SHT31;37911;51.526;11.536;2024-02-15T11:44:37;13.47;83.32
51878;SHT31;37911;51.526;11.536;2024-02-15T11:47:40;13.50;83.74
51878;SHT31;37911;51.526;11.536;2024-02-15T11:50:49;13.59;83.37
51878;SHT31;37911;51.526;11.536;2024-02-15T11:54:02;13.61;83.27
51878;SHT31;37911;51.526;11.536;2024-02-15T11:57:15;13.57;83.35
51878;SHT31;37911;51.526;11.536;2024-02-15T12:00:37;13.64;82.96
51878;SHT31;37911;51.526;11.536;2024-02-15T12:03:53;13.69;82.94
51878;SHT31;37911;51.526;11.536;2024-02-15T12:07:10;13.67;83.52
51878;SHT31;37911;51.526;11.536;2024-02-15T12:10:26;13.73;82.73
51878;SHT31;37911;51.526;11.536;2024-02-15T12:13:49;13.80;82.96
51878;SHT31;37911;51.526;11.536;2024-02-15T12:17:06;13.87;81.90
51878;SHT31;37911;51.526;11.536;2024-02-15T12:20:23;13.92;82.27
51878;SHT31;37911;51.526;11.536;2024-02-15T12:23:27;14.04;81.28
51878;SHT31;37911;51.526;11.536;2024-02-15T12:26:32;14.02;81.71
51878;SHT31;37911;51.526;11.536;2024-02-15T12:29:38;14.15;81.69
51878;SHT31;37911;51.526;11.536;2024-02-15T12:32:42;14.14;81.57
51878;SHT31;37911;51.526;11.536;2024-02-15T12:35:45;14.25;81.37
51878;SHT31;37911;51.526;11.536;2024-02-15T12:38:58;14.28;81.76
51878;SHT31;37911;51.526;11.536;2024-02-15T12:42:02;14.28;81.73
51878;SHT31;37911;51.526;11.536;2024-02-15T12:45:15;14.29;81.27
51878;SHT31;37911;51.526;11.536;2024-02-15T12:48:20;14.34;81.47
51878;SHT31;37911;51.526;11.536;2024-02-15T12:51:24;14.35;81.44
51878;SHT31;37911;51.526;11.536;2024-02-15T12:54:27;14.39;80.83
51878;SHT31;37911;51.526;11.536;2024-02-15T12:57:30;14.36;80.93
51878;SHT31;37911;51.526;11.536;2024-02-15T13:00:36;14.38;81.06
51878;SHT31;37911;51.526;11.536;2024-02-15T13:03:40;14.42;81.56
51878;SHT31;37911;51.526;11.536;2024-02-15T13:06:44;14.32;81.73
51878;SHT31;37911;51.526;11.536;2024-02-15T13:09:47;14.32;81.38
51878;SHT31;37911;51.526;11.536;2024-02-15T13:12:52;14.22;81.51
51878;SHT31;37911;51.526;11.536;2024-02-15T13:15:58;14.17;81.51
51878;SHT31;37911;51.526;11.536;2024-02-15T13:19:02;14.17;81.76
51878;SHT31;37911;51.526;11.536;2024-02-15T13:22:07;14.15;82.20
51878;SHT31;37911;51.526;11.536;2024-02-15T13:25:10;14.11;82.62
51878;SHT31;37911;51.526;11.536;2024-02-15T13:28:16;14.10;82.16
51878;SHT31;37911;51.526;11.536;2024-02-15T13:31:22;14.08;82.04
51878;SHT31;37911;51.526;11.536;2024-02-15T13:34:27;14.08;82.29
51878;SHT31;37911;51.526;11.536;2024-02-15T13:37:33;14.08;82.47
51878;SHT31;37911;51.526;11.536;2024-02-15T13:40:38;14.10;82.12
51878;SHT31;37911;51.526;11.536;2024-02-15T13:43:42;14.08;82.19
51878;SHT31;37911;51.526;11.536;2024-02-15T13:46:48;14.04;82.70
51878;SHT31;37911;51.526;11.536;2024-02-15T13:49:55;14.04;82.39
51878;SHT31;37911;51.526;11.536;2024-02-15T13:52:59;14.02;82.37
51878;SHT31;37911;51.526;11.536;2024-02-15T13:56:03;13.95;82.93
51878;SHT31;37911;51.526;11.536;2024-02-15T13:59:06;13.97;82.75
51878;SHT31;37911;51.526;11.536;2024-02-15T14:02:12;14.01;82.49
51878;SHT31;37911;51.526;11.536;2024-02-15T14:05:15;14.01;82.76
51878;SHT31;37911;51.526;11.536;2024-02-15T14:08:20;14.01;83.11
51878;SHT31;37911;51.526;11.536;2024-02-15T14:11:26;13.92;83.66
51878;SHT31;37911;51.526;11.536;2024-02-15T14:14:29;13.81;83.84
51878;SHT31;37911;51.526;11.536;2024-02-15T14:17:35;13.87;83.70
51878;SHT31;37911;51.526;11.536;2024-02-15T14:20:39;13.84;83.73
51878;SHT31;37911;51.526;11.536;2024-02-15T14:23:54;13.80;83.48
51878;SHT31;37911;51.526;11.536;2024-02-15T14:26:57;13.84;83.52
51878;SHT31;37911;51.526;11.536;2024-02-15T14:30:01;13.78;83.74
51878;SHT31;37911;51.526;11.536;2024-02-15T14:33:17;13.74;84.00
51878;SHT31;37911;51.526;11.536;2024-02-15T14:36:23;13.70;83.93
51878;SHT31;37911;51.526;11.536;2024-02-15T14:39:29;13.63;84.16
51878;SHT31;37911;51.526;11.536;2024-02-15T14:42:34;13.60;84.49
51878;SHT31;37911;51.526;11.536;2024-02-15T14:45:39;13.63;84.76
51878;SHT31;37911;51.526;11.536;2024-02-15T14:48:43;13.53;85.17
51878;SHT31;37911;51.526;11.536;2024-02-15T14:51:47;13.59;85.35
51878;SHT31;37911;51.526;11.536;2024-02-15T14:54:54;13.51;85.95
51878;SHT31;37911;51.526;11.536;2024-02-15T14:57:57;13.42;86.33
51878;SHT31;37911;51.526;11.536;2024-02-15T15:01:01;13.37;86.59
51878;SHT31;37911;51.526;11.536;2024-02-15T15:04:04;13.33;86.79
51878;SHT31;37911;51.526;11.536;2024-02-15T15:07:10;13.22;87.27
51878;SHT31;37911;51.526;11.536;2024-02-15T15:10:31;13.18;87.30
51878;SHT31;37911;51.526;11.536;2024-02-15T15:13:47;13.10;87.40
51878;SHT31;37911;51.526;11.536;2024-02-15T15:16:52;13.06;87.37
51878;SHT31;37911;51.526;11.536;2024-02-15T15:19:55;13.08;87.20
51878;SHT31;37911;51.526;11.536;2024-02-15T15:22:59;12.99;87.51
51878;SHT31;37911;51.526;11.536;2024-02-15T15:26:04;12.92;87.74
51878;SHT31;37911;51.526;11.536;2024-02-15T15:29:11;12.86;88.33
51878;SHT31;37911;51.526;11.536;2024-02-15T15:32:15;12.84;88.66
51878;SHT31;37911;51.526;11.536;2024-02-15T15:35:18;12.93;88.34
51878;SHT31;37911;51.526;11.536;2024-02-15T15:38:22;12.84;88.70
51878;SHT31;37911;51.526;11.536;2024-02-15T15:41:29;12.76;88.97
51878;SHT31;37911;51.526;11.536;2024-02-15T15:44:33;12.78;89.06
51878;SHT31;37911;51.526;11.536;2024-02-15T15:47:38;12.75;88.93
51878;SHT31;37911;51.526;11.536;2024-02-15T15:50:42;12.75;88.92
51878;SHT31;37911;51.526;11.536;2024-02-15T15:53:45;12.68;89.05
51878;SHT31;37911;51.526;11.536;2024-02-15T15:56:52;12.65;89.15
51878;SHT31;37911;51.526;11.536;2024-02-15T15:59:57;12.55;89.31
51878;SHT31;37911;51.526;11.536;2024-02-15T16:03:01;12.52;89.39
51878;SHT31;37911;51.526;11.536;2024-02-15T16:06:05;12.45;89.49
51878;SHT31;37911;51.526;11.536;2024-02-15T16:09:08;12.44;89.56
51878;SHT31;37911;51.526;11.536;2024-02-15T16:12:14;12.46;89.31
51878;SHT31;37911;51.526;11.536;2024-02-15T16:15:20;12.40;89.32
51878;SHT31;37911;51.526;11.536;2024-02-15T16:18:23;12.48;88.99
51878;SHT31;37911;51.526;11.536;2024-02-15T16:21:27;12.41;89.13
51878;SHT31;37911;51.526;11.536;2024-02-15T16:24:30;12.40;89.05
51878;SHT31;37911;51.526;11.536;2024-02-15T16:27:38;12.45;88.84
51878;SHT31;37911;51.526;11.536;2024-02-15T16:30:48;12.41;88.70
51878;SHT31;37911;51.526;11.536;2024-02-15T16:33:52;12.30;89.00
51878;SHT31;37911;51.526;11.536;2024-02-15T16:36:56;12.20;89.32
51878;SHT31;37911;51.526;11.536;2024-02-15T16:40:08;12.16;89.47
51878;SHT31;37911;51.526;11.536;2024-02-15T16:43:15;12.07;89.67
51878;SHT31;37911;51.526;11.536;2024-02-15T16:46:18;12.01;89.74
51878;SHT31;37911;51.526;11.536;2024-02-15T16:49:24;11.95;89.81
51878;SHT31;37911;51.526;11.536;2024-02-15T16:52:28;11.90;89.97
51878;SHT31;37911;51.526;11.536;2024-02-15T16:55:31;11.80;90.01
51878;SHT31;37911;51.526;11.536;2024-02-15T16:58:38;11.71;90.22
51878;SHT31;37911;51.526;11.536;2024-02-15T17:01:42;11.63;90.22
51878;SHT31;37911;51.526;11.536;2024-02-15T17:04:45;11.58;90.35
51878;SHT31;37911;51.526;11.536;2024-02-15T17:07:48;11.52;90.56
51878;SHT31;37911;51.526;11.536;2024-02-15T17:10:54;11.46;90.79
51878;SHT31;37911;51.526;11.536;2024-02-15T17:13:59;11.40;90.87
51878;SHT31;37911;51.526;11.536;2024-02-15T17:17:03;11.32;90.82
51878;SHT31;37911;51.526;11.536;2024-02-15T17:20:09;11.28;90.76
51878;SHT31;37911;51.526;11.536;2024-02-15T17:23:17;11.19;90.78
51878;SHT31;37911;51.526;11.536;2024-02-15T17:26:20;11.14;90.84
51878;SHT31;37911;51.526;11.536;2024-02-15T17:29:27;11.07;90.88
51878;SHT31;37911;51.526;11.536;2024-02-15T17:32:31;11.02;90.95
51878;SHT31;37911;51.526;11.536;2024-02-15T17:35:34;10.95;90.98
51878;SHT31;37911;51.526;11.536;2024-02-15T17:38:38;10.89;91.04
51878;SHT31;37911;51.526;11.536;2024-02-15T17:41:41;10.85;91.10
51878;SHT31;37911;51.526;11.536;2024-02-15T17:44:47;10.84;91.15
51878;SHT31;37911;51.526;11.536;2024-02-15T17:47:50;10.79;91.22
51878;SHT31;37911;51.526;11.536;2024-02-15T17:50:53;10.75;91.34
51878;SHT31;37911;51.526;11.536;2024-02-15T17:53:57;10.75;91.41
51878;SHT31;37911;51.526;11.536;2024-02-15T17:57:01;10.78;91.52
51878;SHT31;37911;51.526;11.536;2024-02-15T18:00:08;10.85;91.54
51878;SHT31;37911;51.526;11.536;2024-02-15T18:03:16;10.78;91.51
51878;SHT31;37911;51.526;11.536;2024-02-15T18:06:19;10.75;91.45
51878;SHT31;37911;51.526;11.536;2024-02-15T18:09:22;10.71;91.39
51878;SHT31;37911;51.526;11.536;2024-02-15T18:12:25;10.64;91.30
51878;SHT31;37911;51.526;11.536;2024-02-15T18:15:31;10.60;91.26
51878;SHT31;37911;51.526;11.536;2024-02-15T18:18:39;10.58;91.28
51878;SHT31;37911;51.526;11.536;2024-02-15T18:21:43;10.57;91.29
51878;SHT31;37911;51.526;11.536;2024-02-15T18:24:47;10.54;91.29
51878;SHT31;37911;51.526;11.536;2024-02-15T18:27:50;10.53;91.35
51878;SHT31;37911;51.526;11.536;2024-02-15T18:30:56;10.51;91.39
51878;SHT31;37911;51.526;11.536;2024-02-15T18:33:59;10.51;91.47
51878;SHT31;37911;51.526;11.536;2024-02-15T18:37:07;10.50;91.56
51878;SHT31;37911;51.526;11.536;2024-02-15T18:40:11;10.54;91.62
51878;SHT31;37911;51.526;11.536;2024-02-15T18:43:15;10.65;91.75
51878;SHT31;37911;51.526;11.536;2024-02-15T18:46:21;10.87;91.35
51878;SHT31;37911;51.526;11.536;2024-02-15T18:49:25;11.05;90.75
51878;SHT31;37911;51.526;11.536;2024-02-15T18:52:28;11.11;90.65
51878;SHT31;37911;51.526;11.536;2024-02-15T18:55:32;11.16;90.53
51878;SHT31;37911;51.526;11.536;2024-02-15T18:58:35;11.15;90.44
51878;SHT31;37911;51.526;11.536;2024-02-15T19:01:43;11.09;90.43
51878;SHT31;37911;51.526;11.536;2024-02-15T19:04:47;11.04;90.49
51878;SHT31;37911;51.526;11.536;2024-02-15T19:07:53;11.01;90.56
51878;SHT31;37911;51.526;11.536;2024-02-15T19:10:57;11.09;90.31
51878;SHT31;37911;51.526;11.536;2024-02-15T19:14:00;11.16;90.07
51878;SHT31;37911;51.526;11.536;2024-02-15T19:17:06;11.16;90.01
51878;SHT31;37911;51.526;11.536;2024-02-15T19:20:10;11.18;89.88